Time;durP1;ratioP1;P1;durP2;ratioP2;P2;SDS_P1;SDS_P2;PMS_P1;PMS_P2;Temp;Humidity;BMP_temperature;BMP_pressure;BME280_temperature;BME280_humidity;BME280_pressure;Samples;Min_cycle;Max_cycle;Signal;HPM_P1;HPM_P2
2021/06/15 00:01:29;;;;;;;10.38;3.92;;;;;;;;;;5042380;28;20055;-51
2021/06/15 00:03:57;;;;;;;10.05;4.25;;;;;;;;;;5040430;28;20122;-57
2021/06/15 00:06:24;;;;;;;12.48;4.45;;;;;;;;;;5059900;28;20114;-56
2021/06/15 00:08:50;;;;;;;9.90;4.60;;;;;;;;;;5041432;28;20045;-55
2021/06/15 00:11:17;;;;;;;14.73;5.22;;;;;;;;;;5035100;28;20048;-56
2021/06/15 00:13:43;;;;;;;10.60;4.32;;;;;;;;;;5046181;28;20041;-53
2021/06/15 00:16:11;;;;;;;11.20;4.82;;;;;;;;;;5040466;28;20048;-57
2021/06/15 00:18:37;;;;;;;13.63;4.38;;;;;;;;;;5063466;28;20064;-52
2021/06/15 00:21:06;;;;;;;12.70;4.72;;;;;;;;;;5058744;28;20044;-49
2021/06/15 00:23:33;;;;;;;9.05;4.18;;;;;;;;;;5045551;28;20040;-55
2021/06/15 00:26:00;;;;;;;9.43;4.13;;;;;;;;;;5056374;28;20040;-54
2021/06/15 00:28:26;;;;;;;9.50;4.10;;;;;;;;;;5043951;28;20052;-51
2021/06/15 00:30:53;;;;;;;11.75;4.32;;;;;;;;;;5040092;28;20033;-53
2021/06/15 00:33:19;;;;;;;14.57;3.90;;;;;;;;;;5043686;28;20056;-51
2021/06/15 00:35:46;;;;;;;11.18;4.10;;;;;;;;;;5043957;28;20041;-54
2021/06/15 00:38:14;;;;;;;10.30;3.67;;;;;;;;;;5040360;28;20044;-51
2021/06/15 00:40:40;;;;;;;8.63;3.63;;;;;;;;;;5045587;28;20040;-48
2021/06/15 00:43:07;;;;;;;11.48;4.05;;;;;;;;;;5045060;28;20032;-52
2021/06/15 00:45:34;;;;;;;12.73;3.85;;;;;;;;;;5048222;28;20048;-54
2021/06/15 00:48:01;;;;;;;9.70;3.45;;;;;;;;;;5041900;28;20041;-52
2021/06/15 00:50:28;;;;;;;7.13;2.90;;;;;;;;;;5045957;28;20052;-49
2021/06/15 00:52:55;;;;;;;6.40;3.10;;;;;;;;;;5059152;28;20056;-49
2021/06/15 00:55:24;;;;;;;9.07;3.20;;;;;;;;;;5045338;28;20036;-50
2021/06/15 00:57:51;;;;;;;12.80;3.70;;;;;;;;;;5041706;28;20133;-52
2021/06/15 01:00:19;;;;;;;8.90;3.13;;;;;;;;;;5042125;28;20064;-54
2021/06/15 01:02:45;;;;;;;9.75;3.17;;;;;;;;;;5041134;28;20102;-52
2021/06/15 01:05:14;;;;;;;9.80;3.50;;;;;;;;;;5042289;28;20029;-54
2021/06/15 01:07:41;;;;;;;;;;;;;;;;;;5041279;28;20056;-50
2021/06/15 01:10:11;;;;;;;8.52;3.00;;;;;;;;;;5043148;28;19932;-54
2021/06/15 01:12:46;;;;;;;10.02;3.22;;;;;;;;;;5040373;28;20064;-51
2021/06/15 01:15:14;;;;;;;11.95;3.45;;;;;;;;;;5044700;28;20044;-55
2021/06/15 01:17:45;;;;;;;8.02;3.28;;;;;;;;;;5039975;28;20191;-54
2021/06/15 01:20:18;;;;;;;13.82;3.60;;;;;;;;;;5044724;28;20044;-52
2021/06/15 01:23:05;;;;;;;11.43;3.70;;;;;;;;;;5040782;28;20037;-55
2021/06/15 01:25:37;;;;;;;8.23;3.20;;;;;;;;;;5043437;28;20056;-55
2021/06/15 01:28:09;;;;;;;10.50;3.50;;;;;;;;;;5020548;28;20060;-55
2021/06/15 01:30:40;;;;;;;6.75;3.10;;;;;;;;;;5044506;28;20121;-54
2021/06/15 01:33:08;;;;;;;9.77;3.15;;;;;;;;;;5060784;28;20125;-53
2021/06/15 01:35:35;;;;;;;11.95;3.78;;;;;;;;;;5041674;28;20041;-56
2021/06/15 01:38:02;;;;;;;14.02;3.70;;;;;;;;;;5061010;28;20051;-58
2021/06/15 01:40:34;;;;;;;7.38;3.22;;;;;;;;;;5040245;28;20037;-55
2021/06/15 01:43:03;;;;;;;7.70;3.25;;;;;;;;;;5043352;28;20116;-57
2021/06/15 01:45:33;;;;;;;8.88;3.35;;;;;;;;;;5042091;28;20037;-58
2021/06/15 01:48:05;;;;;;;8.45;3.17;;;;;;;;;;5045356;28;20041;-56
2021/06/15 01:50:32;;;;;;;7.95;3.05;;;;;;;;;;5038253;28;20037;-57
2021/06/15 01:52:59;;;;;;;7.22;3.20;;;;;;;;;;5041316;28;20040;-54
2021/06/15 01:55:28;;;;;;;13.15;4.28;;;;;;;;;;5038601;28;20045;-55
2021/06/15 01:57:54;;;;;;;;;;;;;;;;;;5062053;28;20045;-58
2021/06/15 02:00:22;;;;;;;11.10;3.28;;;;;;;;;;5037193;28;19932;-53
2021/06/15 02:02:50;;;;;;;9.27;3.47;;;;;;;;;;5022512;28;20037;-59
2021/06/15 02:05:19;;;;;;;7.63;3.25;;;;;;;;;;5025220;28;20037;-59
2021/06/15 02:07:46;;;;;;;10.02;3.50;;;;;;;;;;5060136;28;20059;-56
2021/06/15 02:10:14;;;;;;;10.38;3.70;;;;;;;;;;5031749;28;20113;-58
2021/06/15 02:12:42;;;;;;;8.87;3.77;;;;;;;;;;5048007;28;20072;-58
2021/06/15 02:15:10;;;;;;;8.20;3.47;;;;;;;;;;5043343;28;20037;-58
2021/06/15 02:17:39;;;;;;;6.65;3.08;;;;;;;;;;5048368;28;20037;-59
2021/06/15 02:20:10;;;;;;;9.32;3.47;;;;;;;;;;5044606;28;20036;-53
2021/06/15 02:22:38;;;;;;;11.57;3.80;;;;;;;;;;5066631;28;20044;-55
2021/06/15 02:25:08;;;;;;;9.43;3.70;;;;;;;;;;5047092;28;20048;-56
2021/06/15 02:27:34;;;;;;;8.02;2.80;;;;;;;;;;5062031;28;20130;-55
2021/06/15 02:30:00;;;;;;;8.02;3.35;;;;;;;;;;5046843;28;20037;-57
2021/06/15 02:32:29;;;;;;;9.02;3.25;;;;;;;;;;5042296;28;20045;-56
2021/06/15 02:34:57;;;;;;;8.65;3.55;;;;;;;;;;5046771;28;20047;-57
2021/06/15 02:37:28;;;;;;;11.40;3.60;;;;;;;;;;5041978;28;20057;-56
2021/06/15 02:39:55;;;;;;;12.95;4.07;;;;;;;;;;5063770;28;20072;-59
2021/06/15 02:42:23;;;;;;;12.32;3.20;;;;;;;;;;5060622;28;20048;-55
2021/06/15 02:44:52;;;;;;;11.95;3.65;;;;;;;;;;5046965;28;20042;-55
2021/06/15 02:47:19;;;;;;;8.18;3.20;;;;;;;;;;5042745;28;20076;-53
2021/06/15 02:49:49;;;;;;;8.23;3.47;;;;;;;;;;5045998;28;20064;-56
2021/06/15 02:52:17;;;;;;;7.28;3.05;;;;;;;;;;5041811;28;20118;-55
2021/06/15 02:54:48;;;;;;;9.93;3.58;;;;;;;;;;5045150;28;20047;-53
2021/06/15 02:57:20;;;;;;;9.65;3.35;;;;;;;;;;5060182;28;20051;-55
2021/06/15 02:59:47;;;;;;;8.10;3.05;;;;;;;;;;5063284;28;20126;-57
2021/06/15 03:02:13;;;;;;;9.65;3.67;;;;;;;;;;5040381;28;20130;-57
2021/06/15 03:04:44;;;;;;;9.77;3.40;;;;;;;;;;5062704;28;20044;-54
2021/06/15 03:07:10;;;;;;;12.57;3.33;;;;;;;;;;5040781;28;20036;-54
2021/06/15 03:09:37;;;;;;;11.13;3.17;;;;;;;;;;5053830;28;20049;-53
2021/06/15 03:12:08;;;;;;;12.50;3.17;;;;;;;;;;5023641;28;20061;-57
2021/06/15 03:14:36;;;;;;;7.90;3.45;;;;;;;;;;5046307;28;20041;-53
2021/06/15 03:17:05;;;;;;;9.13;3.90;;;;;;;;;;5046396;28;20047;-58
2021/06/15 03:19:35;;;;;;;7.80;3.05;;;;;;;;;;5044153;28;20040;-54
2021/06/15 03:22:04;;;;;;;9.57;3.17;;;;;;;;;;5045345;28;20040;-54
2021/06/15 03:24:31;;;;;;;8.73;3.30;;;;;;;;;;5040124;28;20044;-55
2021/06/15 03:27:02;;;;;;;12.88;3.05;;;;;;;;;;5046828;28;20139;-53
2021/06/15 03:29:31;;;;;;;9.02;2.70;;;;;;;;;;5041702;28;20041;-54
2021/06/15 03:32:00;;;;;;;7.75;3.15;;;;;;;;;;5045666;28;20045;-50
2021/06/15 03:34:29;;;;;;;10.23;2.60;;;;;;;;;;5041895;28;20040;-55
2021/06/15 03:36:57;;;;;;;8.68;3.10;;;;;;;;;;5048247;28;20077;-55
2021/06/15 03:39:24;;;;;;;9.10;2.85;;;;;;;;;;5048832;28;20029;-54
2021/06/15 03:41:52;;;;;;;8.90;3.08;;;;;;;;;;5044114;28;20115;-54
2021/06/15 03:44:20;;;;;;;7.25;2.90;;;;;;;;;;5041043;28;20033;-59
2021/06/15 03:46:52;;;;;;;10.88;3.53;;;;;;;;;;5062016;28;20040;-55
2021/06/15 03:49:21;;;;;;;7.10;2.80;;;;;;;;;;5042588;28;20116;-57
2021/06/15 03:51:49;;;;;;;10.68;3.05;;;;;;;;;;5046520;28;20162;-57
2021/06/15 03:54:16;;;;;;;8.82;2.55;;;;;;;;;;5045202;28;20052;-58
2021/06/15 03:56:44;;;;;;;7.82;2.72;;;;;;;;;;5047953;28;20096;-55
2021/06/15 03:59:13;;;;;;;9.15;3.00;;;;;;;;;;5040889;28;20044;-52
2021/06/15 04:01:41;;;;;;;9.18;2.80;;;;;;;;;;5064494;28;20048;-59
2021/06/15 04:04:10;;;;;;;6.80;2.78;;;;;;;;;;5038593;28;20052;-53
2021/06/15 04:06:38;;;;;;;8.07;2.78;;;;;;;;;;5045824;28;20088;-55
2021/06/15 04:09:06;;;;;;;8.13;2.75;;;;;;;;;;5045021;28;20040;-56
2021/06/15 04:11:34;;;;;;;7.57;2.50;;;;;;;;;;5042332;28;20100;-56
2021/06/15 04:14:01;;;;;;;8.15;2.88;;;;;;;;;;5045938;28;20097;-54
2021/06/15 04:16:28;;;;;;;7.53;3.05;;;;;;;;;;5040403;28;20125;-54
2021/06/15 04:18:57;;;;;;;8.30;2.70;;;;;;;;;;5045150;28;20037;-57
2021/06/15 04:21:25;;;;;;;10.18;2.75;;;;;;;;;;5041403;28;20037;-54
2021/06/15 04:23:55;;;;;;;8.52;2.70;;;;;;;;;;5045623;28;20032;-54
2021/06/15 04:26:21;;;;;;;8.85;2.90;;;;;;;;;;5040516;28;20068;-55
2021/06/15 04:28:48;;;;;;;7.03;2.80;;;;;;;;;;5043011;28;20052;-54
2021/06/15 04:31:16;;;;;;;6.05;2.53;;;;;;;;;;5041491;28;20036;-58
2021/06/15 04:33:46;;;;;;;7.80;2.40;;;;;;;;;;5044199;28;20051;-58
2021/06/15 04:36:13;;;;;;;7.68;2.65;;;;;;;;;;5042291;28;20117;-57
2021/06/15 04:38:44;;;;;;;6.10;2.47;;;;;;;;;;5043777;28;20119;-54
2021/06/15 04:41:13;;;;;;;6.97;2.72;;;;;;;;;;5040115;28;20052;-56
2021/06/15 04:43:43;;;;;;;7.82;2.30;;;;;;;;;;5045168;28;20053;-58
2021/06/15 04:46:14;;;;;;;7.47;2.10;;;;;;;;;;5039827;28;20056;-57
2021/06/15 04:48:42;;;;;;;8.10;2.60;;;;;;;;;;5044673;28;20113;-54
2021/06/15 04:51:09;;;;;;;6.85;2.78;;;;;;;;;;5040954;28;20107;-58
2021/06/15 04:53:37;;;;;;;5.97;2.17;;;;;;;;;;5045793;28;20040;-55
2021/06/15 04:56:09;;;;;;;7.57;2.40;;;;;;;;;;5061901;28;20051;-54
2021/06/15 04:58:35;;;;;;;9.38;2.10;;;;;;;;;;5024868;28;20045;-55
2021/06/15 05:01:04;;;;;;;6.97;1.80;;;;;;;;;;5024030;28;20051;-57
2021/06/15 05:03:31;;;;;;;3.53;1.80;;;;;;;;;;5039008;28;20045;-55
2021/06/15 05:06:03;;;;;;;5.30;1.83;;;;;;;;;;5041180;28;20048;-56
2021/06/15 05:08:31;;;;;;;7.80;2.53;;;;;;;;;;5037044;28;20098;-58
2021/06/15 05:10:59;;;;;;;7.32;2.08;;;;;;;;;;5041702;28;20077;-57
2021/06/15 05:13:26;;;;;;;4.35;1.83;;;;;;;;;;5040739;28;20045;-58
2021/06/15 05:15:54;;;;;;;7.03;2.08;;;;;;;;;;5031991;28;20052;-58
2021/06/15 05:18:22;;;;;;;2.70;1.48;;;;;;;;;;5034927;28;20052;-54
2021/06/15 05:20:49;;;;;;;;;;;;;;;;;;5032462;28;20089;-56
2021/06/15 05:23:16;;;;;;;4.95;1.30;;;;;;;;;;5042070;28;19917;-57
2021/06/15 05:25:43;;;;;;;4.88;1.42;;;;;;;;;;5030138;28;20041;-57
2021/06/15 05:28:10;;;;;;;5.05;1.50;;;;;;;;;;5042349;28;20033;-58
2021/06/15 05:30:38;;;;;;;6.25;1.58;;;;;;;;;;5033011;28;20123;-55
2021/06/15 05:33:04;;;;;;;9.48;1.30;;;;;;;;;;5043936;28;20048;-58
2021/06/15 05:35:31;;;;;;;3.13;1.23;;;;;;;;;;5031425;28;20036;-58
2021/06/15 05:37:58;;;;;;;6.95;1.45;;;;;;;;;;5026081;28;20044;-58
2021/06/15 05:40:25;;;;;;;3.97;1.17;;;;;;;;;;5050522;28;20041;-54
2021/06/15 05:42:51;;;;;;;7.43;1.25;;;;;;;;;;5027316;28;20041;-58
2021/06/15 05:45:18;;;;;;;5.45;1.60;;;;;;;;;;5027032;28;20147;-50
2021/06/15 05:47:46;;;;;;;8.32;1.60;;;;;;;;;;5046239;28;22177;-57
2021/06/15 05:50:14;;;;;;;4.53;1.50;;;;;;;;;;5026394;28;20233;-56
2021/06/15 05:52:44;;;;;;;5.93;1.23;;;;;;;;;;5035919;28;20281;-58
2021/06/15 05:55:13;;;;;;;2.95;1.27;;;;;;;;;;5025823;28;20041;-60
2021/06/15 05:57:39;;;;;;;6.32;1.25;;;;;;;;;;5031959;28;20033;-58
2021/06/15 06:00:07;;;;;;;4.93;1.23;;;;;;;;;;5046079;28;20040;-58
2021/06/15 06:02:33;;;;;;;4.22;1.30;;;;;;;;;;5026603;28;20049;-56
2021/06/15 06:08:04;;;;;;;5.47;1.30;;;;;;;;;;5032755;28;20057;-57
2021/06/15 06:10:40;;;;;;;10.43;1.20;;;;;;;;;;5013792;28;20033;-59
2021/06/15 06:13:11;;;;;;;4.63;1.40;;;;;;;;;;5040941;28;20081;-58
2021/06/15 06:15:38;;;;;;;7.03;1.33;;;;;;;;;;5037150;28;20033;-55
2021/06/15 06:18:08;;;;;;;4.47;1.50;;;;;;;;;;5060827;28;20045;-56
2021/06/15 06:20:36;;;;;;;5.20;1.20;;;;;;;;;;5039955;28;20037;-57
2021/06/15 06:23:03;;;;;;;4.43;1.05;;;;;;;;;;5059473;28;20059;-57
2021/06/15 06:25:30;;;;;;;5.55;1.30;;;;;;;;;;5040435;28;20037;-53
2021/06/15 06:27:56;;;;;;;4.93;1.23;;;;;;;;;;5044189;28;20036;-55
2021/06/15 06:30:24;;;;;;;6.28;1.20;;;;;;;;;;5058328;28;20130;-55
2021/06/15 06:32:51;;;;;;;7.32;1.33;;;;;;;;;;5042082;28;20060;-57
2021/06/15 06:35:20;;;;;;;4.82;1.40;;;;;;;;;;5036956;28;20049;-53
2021/06/15 06:37:48;;;;;;;3.67;0.95;;;;;;;;;;5043249;28;20045;-57
2021/06/15 06:40:15;;;;;;;6.80;1.60;;;;;;;;;;5038500;28;20045;-57
2021/06/15 06:42:42;;;;;;;3.67;1.08;;;;;;;;;;5044896;28;20054;-57
2021/06/15 06:45:10;;;;;;;7.97;1.58;;;;;;;;;;5059804;28;20048;-57
2021/06/15 06:47:37;;;;;;;8.95;1.20;;;;;;;;;;5039486;28;20073;-56
2021/06/15 06:50:04;;;;;;;5.43;0.90;;;;;;;;;;5044608;28;20049;-59
2021/06/15 06:52:30;;;;;;;9.38;1.10;;;;;;;;;;5038211;28;20121;-56
2021/06/15 06:54:59;;;;;;;13.18;1.40;;;;;;;;;;5044104;28;20041;-58
2021/06/15 06:57:25;;;;;;;26.98;1.55;;;;;;;;;;5040368;28;20106;-58
2021/06/15 06:59:52;;;;;;;22.13;1.40;;;;;;;;;;5066465;28;20037;-57
2021/06/15 07:02:18;;;;;;;21.17;1.33;;;;;;;;;;5045179;28;20040;-58
2021/06/15 07:04:44;;;;;;;7.97;0.80;;;;;;;;;;5044108;28;20038;-58
2021/06/15 07:07:11;;;;;;;5.88;0.90;;;;;;;;;;5037040;28;20041;-58
2021/06/15 07:09:38;;;;;;;5.00;1.05;;;;;;;;;;5045564;28;20037;-57
2021/06/15 07:12:06;;;;;;;6.18;1.10;;;;;;;;;;5043744;28;20130;-54
2021/06/15 07:14:33;;;;;;;;;;;;;;;;;;5045827;28;20044;-56
2021/06/15 07:17:00;;;;;;;4.68;0.82;;;;;;;;;;5041390;28;20042;-57
2021/06/15 07:19:26;;;;;;;5.43;1.10;;;;;;;;;;5045772;28;20102;-57
2021/06/15 07:21:53;;;;;;;7.30;1.02;;;;;;;;;;5042216;28;20040;-56
2021/06/15 07:24:19;;;;;;;10.18;1.15;;;;;;;;;;5047297;28;20100;-59
2021/06/15 07:26:47;;;;;;;16.45;1.42;;;;;;;;;;5047584;28;20041;-51
2021/06/15 07:29:15;;;;;;;53.65;2.53;;;;;;;;;;5058881;28;20051;-56
2021/06/15 07:31:41;;;;;;;135.70;4.78;;;;;;;;;;5046214;28;20065;-53
2021/06/15 07:34:08;;;;;;;6.43;1.17;;;;;;;;;;5042383;28;20045;-56
2021/06/15 07:36:36;;;;;;;33.10;2.05;;;;;;;;;;5054687;28;20117;-58
2021/06/15 07:39:02;;;;;;;15.68;1.58;;;;;;;;;;5066545;28;20043;-57
2021/06/15 07:41:29;;;;;;;10.23;2.00;;;;;;;;;;5063167;28;20049;-52
2021/06/15 07:43:55;;;;;;;6.25;1.10;;;;;;;;;;5042459;28;20136;-56
2021/06/15 07:46:25;;;;;;;4.63;0.95;;;;;;;;;;5046481;28;20033;-55
2021/06/15 07:48:53;;;;;;;12.77;1.48;;;;;;;;;;5041281;28;20065;-55
2021/06/15 07:51:20;;;;;;;6.77;0.83;;;;;;;;;;5045862;28;20052;-57
2021/06/15 07:53:46;;;;;;;19.27;1.60;;;;;;;;;;5059586;28;20278;-56
2021/06/15 07:56:13;;;;;;;9.00;1.33;;;;;;;;;;5065180;28;20048;-56
2021/06/15 07:58:40;;;;;;;9.10;1.10;;;;;;;;;;5042890;28;20094;-57
2021/06/15 08:01:06;;;;;;;107.57;5.47;;;;;;;;;;5045865;28;20052;-57
2021/06/15 08:03:34;;;;;;;9.30;1.58;;;;;;;;;;5040196;28;20041;-54
2021/06/15 08:06:01;;;;;;;3.33;1.17;;;;;;;;;;5041568;28;20041;-56
2021/06/15 08:08:28;;;;;;;5.65;0.70;;;;;;;;;;5043810;28;20084;-54
2021/06/15 08:10:56;;;;;;;26.60;1.42;;;;;;;;;;5059132;28;20048;-56
2021/06/15 08:13:22;;;;;;;59.65;2.00;;;;;;;;;;5046280;28;20037;-57
2021/06/15 08:15:51;;;;;;;7.47;1.20;;;;;;;;;;5041939;28;20056;-54
2021/06/15 08:18:18;;;;;;;67.50;2.35;;;;;;;;;;5062541;28;20049;-57
2021/06/15 08:20:49;;;;;;;5.97;0.85;;;;;;;;;;5042634;28;20041;-56
2021/06/15 08:23:15;;;;;;;8.75;1.38;;;;;;;;;;5044094;28;20068;-58
2021/06/15 08:25:43;;;;;;;15.57;1.35;;;;;;;;;;5042864;28;20029;-57
2021/06/15 08:28:11;;;;;;;5.55;0.95;;;;;;;;;;5045620;28;20053;-57
2021/06/15 08:30:38;;;;;;;6.78;0.90;;;;;;;;;;5040676;28;20055;-60
2021/06/15 08:33:08;;;;;;;7.72;1.15;;;;;;;;;;5046928;28;20044;-56
2021/06/15 08:35:35;;;;;;;4.20;0.90;;;;;;;;;;5043280;28;20135;-57
2021/06/15 08:38:03;;;;;;;4.78;0.88;;;;;;;;;;5046253;28;20040;-58
2021/06/15 08:40:30;;;;;;;12.82;1.15;;;;;;;;;;5043118;28;20037;-57
2021/06/15 08:42:57;;;;;;;11.13;1.20;;;;;;;;;;5043703;28;20056;-57
2021/06/15 08:45:24;;;;;;;2.78;0.90;;;;;;;;;;5042082;28;20045;-58
2021/06/15 08:47:52;;;;;;;5.65;1.13;;;;;;;;;;5043952;28;20114;-58
2021/06/15 08:50:19;;;;;;;4.20;1.15;;;;;;;;;;5039998;28;20045;-56
2021/06/15 08:52:47;;;;;;;5.78;0.80;;;;;;;;;;5043181;28;20041;-58
2021/06/15 08:55:16;;;;;;;9.90;0.90;;;;;;;;;;5045444;28;20163;-56
2021/06/15 08:57:43;;;;;;;7.38;0.90;;;;;;;;;;5041675;28;20125;-57
2021/06/15 09:00:10;;;;;;;7.30;1.05;;;;;;;;;;5043788;28;20077;-57
2021/06/15 09:02:41;;;;;;;5.33;0.97;;;;;;;;;;5039603;28;20037;-57
2021/06/15 09:05:08;;;;;;;4.53;0.93;;;;;;;;;;5040566;28;20033;-54
2021/06/15 09:07:49;;;;;;;59.97;3.25;;;;;;;;;;5040920;28;20194;-57
2021/06/15 09:10:27;;;;;;;7.15;1.17;;;;;;;;;;5043128;28;20048;-57
2021/06/15 09:12:54;;;;;;;;;;;;;;;;;;5056757;28;20080;-55
2021/06/15 09:15:22;;;;;;;28.80;1.88;;;;;;;;;;5043047;28;19998;-57
2021/06/15 09:17:49;;;;;;;4.65;0.80;;;;;;;;;;5040149;28;20061;-58
2021/06/15 09:20:18;;;;;;;6.28;0.85;;;;;;;;;;5059279;28;20053;-55
2021/06/15 09:22:46;;;;;;;4.78;0.70;;;;;;;;;;5038947;28;20043;-58
2021/06/15 09:25:14;;;;;;;7.93;1.10;;;;;;;;;;5042924;28;20114;-58
2021/06/15 09:27:42;;;;;;;4.40;0.82;;;;;;;;;;5040683;28;21670;-57
2021/06/15 09:30:10;;;;;;;3.63;0.80;;;;;;;;;;5047453;28;20040;-58
2021/06/15 09:32:38;;;;;;;5.13;0.73;;;;;;;;;;5040783;28;20056;-58
2021/06/15 09:35:06;;;;;;;5.50;0.90;;;;;;;;;;5043023;28;20037;-57
2021/06/15 09:37:34;;;;;;;4.53;0.95;;;;;;;;;;5040882;28;20044;-55
2021/06/15 09:40:04;;;;;;;7.82;1.20;;;;;;;;;;5044322;28;20047;-59
2021/06/15 09:42:30;;;;;;;5.22;0.90;;;;;;;;;;5040780;28;20040;-58
2021/06/15 09:44:59;;;;;;;4.03;0.77;;;;;;;;;;5044515;28;20048;-57
2021/06/15 09:47:25;;;;;;;;;;;;;;;;;;5043819;28;20059;-55
2021/06/15 09:49:52;;;;;;;8.07;1.02;;;;;;;;;;5057602;28;19932;-53
2021/06/15 09:52:20;;;;;;;6.18;2.85;;;;;;;;;;5043196;28;20115;-56
2021/06/15 09:54:48;;;;;;;9.45;3.20;;;;;;;;;;5042218;28;20041;-52
2021/06/15 09:57:21;;;;;;;4.85;1.15;;;;;;;;;;5062653;28;20093;-58
2021/06/15 10:00:14;;;;;;;10.63;1.10;;;;;;;;;;5041019;28;20043;-57
2021/06/15 10:02:53;;;;;;;3.55;0.68;;;;;;;;;;5042421;28;20146;-57
2021/06/15 10:05:22;;;;;;;3.53;1.00;;;;;;;;;;5037155;28;20064;-54
2021/06/15 10:07:49;;;;;;;9.65;1.13;;;;;;;;;;5062398;28;20404;-59
2021/06/15 10:10:16;;;;;;;6.18;1.27;;;;;;;;;;5025374;28;20045;-59
2021/06/15 10:12:43;;;;;;;8.93;1.17;;;;;;;;;;5024743;28;20107;-59
2021/06/15 10:15:29;;;;;;;4.57;1.20;;;;;;;;;;5036771;28;20055;-58
2021/06/15 10:17:57;;;;;;;5.30;0.95;;;;;;;;;;5043746;28;20083;-58
2021/06/15 10:20:24;;;;;;;;;;;;;;;;;;5039230;28;20081;-58
2021/06/15 10:22:51;;;;;;;5.47;1.10;;;;;;;;;;5041804;28;19927;-58
2021/06/15 10:25:19;;;;;;;4.38;1.42;;;;;;;;;;5058224;28;20037;-56
2021/06/15 10:27:46;;;;;;;;;;;;;;;;;;5062519;28;20053;-58
2021/06/15 10:30:14;;;;;;;6.45;1.25;;;;;;;;;;5038502;28;19968;-57
2021/06/15 10:32:50;;;;;;;9.30;1.63;;;;;;;;;;5043866;28;20041;-57
2021/06/15 10:35:31;;;;;;;6.55;1.20;;;;;;;;;;5059645;28;20041;-58
2021/06/15 10:37:58;;;;;;;4.28;1.10;;;;;;;;;;5045001;28;20048;-59
2021/06/15 10:40:32;;;;;;;4.80;1.20;;;;;;;;;;5042039;28;20049;-60
2021/06/15 10:43:19;;;;;;;7.25;1.13;;;;;;;;;;5045241;28;20114;-59
2021/06/15 10:45:47;;;;;;;4.45;1.10;;;;;;;;;;5043943;28;20056;-58
2021/06/15 10:48:27;;;;;;;8.27;1.17;;;;;;;;;;5046735;28;20067;-59
2021/06/15 10:50:56;;;;;;;9.02;1.38;;;;;;;;;;5042087;28;20163;-58
2021/06/15 10:53:33;;;;;;;5.63;1.00;;;;;;;;;;5045899;28;20044;-57
2021/06/15 10:56:01;;;;;;;8.15;1.10;;;;;;;;;;5043731;28;20045;-57
2021/06/15 10:58:44;;;;;;;5.13;0.82;;;;;;;;;;5046850;28;20053;-60
2021/06/15 11:01:13;;;;;;;6.75;0.93;;;;;;;;;;5042575;28;20049;-57
2021/06/15 11:03:44;;;;;;;6.78;1.25;;;;;;;;;;5042174;28;20049;-56
2021/06/15 11:06:14;;;;;;;5.78;1.08;;;;;;;;;;5040838;28;20069;-58
2021/06/15 11:08:42;;;;;;;5.00;1.10;;;;;;;;;;5044398;28;20040;-56
2021/06/15 11:11:18;;;;;;;12.93;4.95;;;;;;;;;;5024181;28;20056;-56
2021/06/15 11:13:45;;;;;;;5.53;1.38;;;;;;;;;;5044263;28;20044;-59
2021/06/15 11:16:27;;;;;;;14.20;1.40;;;;;;;;;;5042740;28;20045;-57
2021/06/15 11:19:20;;;;;;;26.17;2.38;;;;;;;;;;5045543;28;20266;-57
2021/06/15 11:21:49;;;;;;;119.07;4.50;;;;;;;;;;5006103;28;20045;-59
2021/06/15 11:24:19;;;;;;;9.77;1.20;;;;;;;;;;5045354;28;20037;-59
2021/06/15 11:26:47;;;;;;;5.90;1.20;;;;;;;;;;5045444;28;20045;-59
2021/06/15 11:29:26;;;;;;;6.20;1.30;;;;;;;;;;5043873;28;20044;-58
2021/06/15 11:31:53;;;;;;;4.93;1.35;;;;;;;;;;5024936;28;20048;-59
2021/06/15 11:34:20;;;;;;;5.35;1.20;;;;;;;;;;5046099;28;20117;-59
2021/06/15 11:36:52;;;;;;;27.30;2.05;;;;;;;;;;5062741;28;20105;-58
2021/06/15 11:39:27;;;;;;;21.08;1.77;;;;;;;;;;5044911;28;20091;-59
2021/06/15 11:42:18;;;;;;;15.52;1.35;;;;;;;;;;5044301;28;20134;-58
2021/06/15 11:44:56;;;;;;;7.05;0.95;;;;;;;;;;5022109;28;20049;-58
2021/06/15 11:47:23;;;;;;;5.78;1.15;;;;;;;;;;5025140;28;20049;-59
2021/06/15 11:50:02;;;;;;;7.63;1.02;;;;;;;;;;5064458;28;20045;-59
2021/06/15 11:52:30;;;;;;;18.02;1.60;;;;;;;;;;5044574;28;20037;-60
2021/06/15 11:54:59;;;;;;;7.45;1.27;;;;;;;;;;5025789;28;20041;-59
2021/06/15 11:57:26;;;;;;;7.18;1.17;;;;;;;;;;5023976;28;20041;-59
2021/06/15 11:59:53;;;;;;;7.93;1.27;;;;;;;;;;5039144;28;20088;-60
2021/06/15 12:02:22;;;;;;;36.85;2.80;;;;;;;;;;5044017;28;20045;-59
2021/06/15 12:05:09;;;;;;;26.65;1.85;;;;;;;;;;5036771;28;20091;-58
2021/06/15 12:07:38;;;;;;;13.73;1.10;;;;;;;;;;5041658;28;20057;-59
2021/06/15 12:10:06;;;;;;;14.68;1.40;;;;;;;;;;5024247;28;20051;-60
2021/06/15 12:12:52;;;;;;;37.15;2.58;;;;;;;;;;5013013;28;20057;-59
2021/06/15 12:15:27;;;;;;;6.97;1.40;;;;;;;;;;5038132;28;20049;-60
2021/06/15 12:17:54;;;;;;;10.35;1.65;;;;;;;;;;5044633;28;20041;-60
2021/06/15 12:20:22;;;;;;;13.40;1.60;;;;;;;;;;5041819;28;20122;-60
2021/06/15 12:22:50;;;;;;;47.10;3.88;;;;;;;;;;5045567;28;20120;-60
2021/06/15 12:25:19;;;;;;;17.17;1.77;;;;;;;;;;5040871;28;20037;-59
2021/06/15 12:27:45;;;;;;;12.32;1.88;;;;;;;;;;5045137;28;20044;-59
2021/06/15 12:30:13;;;;;;;244.38;10.02;;;;;;;;;;5059537;28;20055;-59
2021/06/15 12:32:46;;;;;;;55.73;2.97;;;;;;;;;;5045273;28;20045;-59
2021/06/15 12:35:21;;;;;;;146.30;5.30;;;;;;;;;;5041660;28;20056;-58
2021/06/15 12:37:49;;;;;;;15.00;1.48;;;;;;;;;;5044539;28;20033;-59
2021/06/15 12:40:22;;;;;;;9.30;1.65;;;;;;;;;;5041221;28;20122;-58
2021/06/15 12:42:49;;;;;;;28.67;1.98;;;;;;;;;;5044582;28;20064;-59
2021/06/15 12:45:18;;;;;;;4.93;1.00;;;;;;;;;;5039550;28;20028;-60
2021/06/15 12:47:46;;;;;;;8.00;1.75;;;;;;;;;;5044574;28;20052;-60
2021/06/15 12:50:20;;;;;;;5.30;1.10;;;;;;;;;;5040792;28;20049;-59
2021/06/15 12:52:47;;;;;;;6.18;1.50;;;;;;;;;;5046187;28;20057;-58
2021/06/15 12:55:17;;;;;;;9.32;1.45;;;;;;;;;;5042165;28;20074;-58
2021/06/15 12:57:55;;;;;;;17.20;1.35;;;;;;;;;;5044616;28;20091;-59
2021/06/15 13:00:22;;;;;;;4.57;1.10;;;;;;;;;;5039673;28;20041;-59
2021/06/15 13:02:48;;;;;;;5.30;1.00;;;;;;;;;;5044806;28;20068;-59
2021/06/15 13:05:18;;;;;;;4.30;1.23;;;;;;;;;;5040358;28;20118;-60
2021/06/15 13:07:55;;;;;;;4.47;1.10;;;;;;;;;;5042373;28;20052;-59
2021/06/15 13:10:23;;;;;;;11.27;1.25;;;;;;;;;;5044808;28;20037;-55
2021/06/15 13:12:51;;;;;;;6.05;0.90;;;;;;;;;;5040024;28;20069;-60
2021/06/15 13:15:20;;;;;;;4.63;1.50;;;;;;;;;;5045755;28;20051;-60
2021/06/15 13:17:54;;;;;;;5.55;1.10;;;;;;;;;;5040840;28;20045;-60
2021/06/15 13:20:24;;;;;;;11.10;1.30;;;;;;;;;;5045128;28;20037;-59
2021/06/15 13:22:51;;;;;;;10.40;1.60;;;;;;;;;;5041078;28;20037;-57
2021/06/15 13:25:19;;;;;;;7.77;1.30;;;;;;;;;;5045262;28;20049;-59
2021/06/15 13:27:49;;;;;;;3.75;0.93;;;;;;;;;;5060104;28;20080;-60
2021/06/15 13:30:19;;;;;;;8.27;1.40;;;;;;;;;;5047636;28;20037;-60
2021/06/15 13:32:48;;;;;;;13.48;1.05;;;;;;;;;;5041671;28;20041;-59
2021/06/15 13:35:17;;;;;;;8.82;1.40;;;;;;;;;;5044145;28;20150;-59
2021/06/15 13:37:45;;;;;;;7.13;1.00;;;;;;;;;;5040749;28;20068;-58
2021/06/15 13:40:13;;;;;;;6.75;1.40;;;;;;;;;;5044883;28;20106;-59
2021/06/15 13:42:40;;;;;;;16.40;1.67;;;;;;;;;;5058819;28;20043;-61
2021/06/15 13:45:13;;;;;;;22.07;1.47;;;;;;;;;;5043100;28;20122;-59
2021/06/15 13:47:40;;;;;;;4.88;1.02;;;;;;;;;;5039193;28;20044;-57
2021/06/15 13:50:08;;;;;;;6.97;1.10;;;;;;;;;;5028114;28;20051;-60
2021/06/15 13:52:35;;;;;;;6.38;1.10;;;;;;;;;;5039535;28;20341;-57
2021/06/15 13:55:03;;;;;;;5.57;1.15;;;;;;;;;;5043711;28;20056;-59
2021/06/15 13:57:29;;;;;;;11.52;1.38;;;;;;;;;;5038980;28;20114;-57
2021/06/15 13:59:57;;;;;;;9.68;1.30;;;;;;;;;;5059710;28;20044;-59
2021/06/15 14:02:25;;;;;;;10.30;1.45;;;;;;;;;;5043438;28;20047;-58
2021/06/15 14:04:51;;;;;;;12.50;1.17;;;;;;;;;;5056943;28;20072;-57
2021/06/15 14:07:18;;;;;;;11.80;1.27;;;;;;;;;;5062868;28;20033;-59
2021/06/15 14:09:44;;;;;;;5.22;0.98;;;;;;;;;;5049156;28;20073;-60
2021/06/15 14:12:11;;;;;;;10.18;1.33;;;;;;;;;;5041761;28;20159;-61
2021/06/15 14:14:37;;;;;;;7.72;1.38;;;;;;;;;;5071524;28;20044;-59
2021/06/15 14:17:04;;;;;;;11.63;1.20;;;;;;;;;;5063134;28;20052;-59
2021/06/15 14:19:32;;;;;;;7.82;1.13;;;;;;;;;;5060233;28;20163;-58
2021/06/15 14:21:59;;;;;;;7.45;1.13;;;;;;;;;;5064120;28;20037;-59
2021/06/15 14:24:25;;;;;;;5.15;0.90;;;;;;;;;;5058124;28;20049;-58
2021/06/15 14:26:52;;;;;;;6.70;1.35;;;;;;;;;;5064396;28;20121;-60
2021/06/15 14:29:19;;;;;;;5.03;1.00;;;;;;;;;;5060066;28;20033;-60
2021/06/15 14:31:45;;;;;;;6.95;1.48;;;;;;;;;;5064376;28;20041;-60
2021/06/15 14:34:12;;;;;;;8.20;1.00;;;;;;;;;;5061029;28;20054;-61
2021/06/15 14:36:41;;;;;;;5.65;1.00;;;;;;;;;;5062207;28;20029;-59
2021/06/15 14:39:08;;;;;;;3.35;0.90;;;;;;;;;;5060565;28;20063;-58
2021/06/15 14:41:34;;;;;;;5.60;1.23;;;;;;;;;;5062342;28;20045;-59
2021/06/15 14:44:02;;;;;;;6.65;1.13;;;;;;;;;;5062206;28;20108;-60
2021/06/15 14:46:30;;;;;;;8.15;1.25;;;;;;;;;;5059510;28;20093;-60
2021/06/15 14:48:57;;;;;;;4.82;1.08;;;;;;;;;;5059256;28;20063;-60
2021/06/15 14:51:24;;;;;;;6.60;1.13;;;;;;;;;;5057851;28;20113;-58
2021/06/15 14:53:52;;;;;;;11.18;1.85;;;;;;;;;;5061605;28;20044;-60